Aérodrome :
LOGIN :

S'inscrire | Disclaimer

   EN    FR    IT 

 










Légende :    VFR   VFR Marginal   IFR   IFR Intensif   IFR Très Intensif
Visi : 
Plafond : 
>= 8 km
>= 3000ft
5 à 8 km
1000 à 3000 ft
1500m à 5 km
500 à 1000 ft
800 à 1500m
200 à 500 ft
< 800m
< 200 ft
Symboles :   Orages  Brouillard  Fortes neiges  Fortes précipitations  Vent > 20 kt
SIGMETs :   Divers  Orages  Givrage  Turbulence  Onde Orograph.  Cendres Volcan.






- Altitude de l'aérodrome : 20 ft


EBFN - Koksijde

DERNIER METAR :
  • 121055Z 21013KT 9999 SCT027 SCT050 08/05 Q0999 BLU BLU TEMPO WHT

METARs EXPIRÉS :
  • 121025Z 22013KT 9999 SCT027 SCT050 08/04 Q0999 BLU BLU TEMPO WHT
  • 120955Z 22011KT 9999 SCT026 SCT050 07/04 Q0999 BLU BLU TEMPO WHT
  • 120943Z 23010KT 9999 SCT026 SCT050 06/04 Q0999 BLU BLU TEMPO WHT
  • 120925Z 22011KT 9999 -SHRA SCT023 SCT050 06/04 Q0999 WHT WHT BECMG BLU
  • 120855Z 21011KT 9999 SCT020 SCT060 05/04 Q0999 WHT WHT
  • 120825Z 20011KT 9999 SCT018 SCT060 04/03 Q1000 WHT WHT

TAF AMD TAF EBFN
Valide du 12 à 10h jusqu'au 12 à 19h UTC


120942Z 1210/1219 22013G25KT 9999 SCT025 SCT050
PROB30
TEMPO 1210/1212 23015G25KT 6000 -SHRA BKN015TCU
TEMPO 1217/1219 4000 RA SHRA BKN016TCU OVC030



MET'MAP, la Météo Aéronautique d'un coup d'oeil ! - Copyright ORBIFLY Décembre 2007 - Disclaimer

ORBIFLY MET'MAP TEAM :

Programmation & Développement : Alexandra Zaïnal
Conception & Développement : Baudouin d'Aumeries
Co-Programmation & Développement : Marc-Olivier Méhu
Soutien technique & logistique : Manuel Goepfert

Contact : metmap@orbifly.com




SOURCES & CREDITS :

   NOAA